createdAt,value
2022-08-29T00:01:30.255Z,9.44
2022-08-29T00:06:31.868Z,9.47
2022-08-29T00:11:33.427Z,9.27
2022-08-29T00:16:35.457Z,9.17
2022-08-29T00:21:37.143Z,9.26
2022-08-29T00:26:38.799Z,9.08
2022-08-29T00:31:40.371Z,9.05
2022-08-29T00:36:41.940Z,8.88
2022-08-29T00:41:50.720Z,8.82
2022-08-29T00:46:55.941Z,8.84
2022-08-29T00:52:00.480Z,8.47
2022-08-29T00:57:02.488Z,8.80
2022-08-29T01:02:06.254Z,8.67
2022-08-29T01:07:09.433Z,8.47
2022-08-29T01:12:17.618Z,8.07
2022-08-29T01:17:24.025Z,8.12
2022-08-29T01:22:47.513Z,8.05
2022-08-29T01:28:06.819Z,8.03
2022-08-29T01:33:08.872Z,8.04
2022-08-29T01:38:11.752Z,7.65
2022-08-29T01:43:13.322Z,8.11
2022-08-29T01:48:15.339Z,7.65
2022-08-29T01:53:17.279Z,7.40
2022-08-29T01:58:18.822Z,7.70
2022-08-29T02:03:20.426Z,7.92
2022-08-29T02:08:21.975Z,7.66
2022-08-29T02:13:24.490Z,7.91
2022-08-29T02:18:26.064Z,7.81
2022-08-29T02:23:31.248Z,7.85
2022-08-29T02:28:35.496Z,8.09
2022-08-29T02:33:38.199Z,8.08
2022-08-29T02:38:40.288Z,8.25
2022-08-29T02:43:42.293Z,8.23
2022-08-29T02:48:49.218Z,8.53
2022-08-29T02:54:03.669Z,8.69
2022-08-29T02:59:05.658Z,8.70
2022-08-29T03:04:07.228Z,8.79
2022-08-29T03:09:08.837Z,8.82
2022-08-29T03:14:10.458Z,8.96
2022-08-29T03:19:12.076Z,9.08
2022-08-29T03:24:13.769Z,9.14
2022-08-29T03:29:15.348Z,9.23
2022-08-29T03:34:16.924Z,9.28
2022-08-29T03:39:18.841Z,9.47
2022-08-29T03:44:20.428Z,9.28
2022-08-29T03:49:21.979Z,9.38
2022-08-29T03:54:26.620Z,9.35
2022-08-29T03:59:28.182Z,9.36
2022-08-29T04:04:48.093Z,9.41
2022-08-29T04:09:49.916Z,9.34
2022-08-29T04:14:51.518Z,9.28
2022-08-29T04:19:53.160Z,9.28
2022-08-29T04:24:54.839Z,9.23
2022-08-29T04:29:56.354Z,9.38
2022-08-29T04:34:58.858Z,9.35
2022-08-29T04:40:01.420Z,9.49
2022-08-29T04:45:04.751Z,9.55
2022-08-29T04:50:07.841Z,9.70
2022-08-29T04:55:11.442Z,9.35
2022-08-29T05:00:17.313Z,9.69
2022-08-29T05:05:18.946Z,9.69
2022-08-29T05:10:22.596Z,10.03
2022-08-29T05:15:24.235Z,10.10
2022-08-29T05:20:25.804Z,10.20
2022-08-29T05:25:27.340Z,10.45
2022-08-29T05:30:35.190Z,10.65
2022-08-29T05:35:37.599Z,10.67
2022-08-29T05:40:39.214Z,10.82
2022-08-29T05:45:41.782Z,10.96
2022-08-29T05:50:44.036Z,11.03
2022-08-29T05:55:47.680Z,11.20
2022-08-29T06:00:52.392Z,11.15
2022-08-29T06:05:54.029Z,11.53
2022-08-29T06:10:55.833Z,11.53
2022-08-29T06:15:57.537Z,11.88
2022-08-29T06:20:59.237Z,12.09
2022-08-29T06:26:01.233Z,12.43
2022-08-29T06:31:20.929Z,12.50
2022-08-29T06:36:25.507Z,12.80
2022-08-29T06:41:28.593Z,13.02
2022-08-29T06:46:37.589Z,13.18
2022-08-29T06:51:42.315Z,13.93
2022-08-29T06:56:43.980Z,14.35
2022-08-29T07:01:47.580Z,14.34
2022-08-29T07:06:49.607Z,14.56
2022-08-29T07:11:51.274Z,14.44
2022-08-29T07:16:52.974Z,14.63
2022-08-29T07:21:58.121Z,14.68
2022-08-29T07:27:00.534Z,14.92
2022-08-29T07:32:02.250Z,14.98
2022-08-29T07:37:05.759Z,15.37
2022-08-29T07:42:07.933Z,15.42
2022-08-29T07:47:09.510Z,15.58
2022-08-29T07:52:11.334Z,15.73
2022-08-29T07:57:16.534Z,15.72
2022-08-29T08:02:18.188Z,16.07
2022-08-29T08:07:19.786Z,16.18
2022-08-29T08:12:26.356Z,16.48
2022-08-29T08:17:27.936Z,16.55
2022-08-29T08:22:29.503Z,16.60
2022-08-29T08:27:33.262Z,16.55
2022-08-29T08:32:34.984Z,16.73
2022-08-29T08:37:40.319Z,16.91
2022-08-29T08:42:45.454Z,17.07
2022-08-29T08:47:51.126Z,17.18
2022-08-29T08:53:00.786Z,17.63
2022-08-29T08:58:10.974Z,17.42
2022-08-29T09:03:48.457Z,17.49
2022-08-29T09:09:08.124Z,18.67
2022-08-29T09:14:47.094Z,19.25
2022-08-29T09:19:52.614Z,19.25
2022-08-29T09:25:01.304Z,19.88
2022-08-29T09:30:14.910Z,20.55
2022-08-29T09:35:24.505Z,19.64
2022-08-29T09:40:42.841Z,18.94
2022-08-29T09:46:10.970Z,19.74
2022-08-29T09:51:22.217Z,20.06
2022-08-29T09:56:27.888Z,19.41
2022-08-29T10:01:32.279Z,19.33
2022-08-29T10:06:45.114Z,19.59
2022-08-29T10:11:56.528Z,19.63
2022-08-29T10:17:43.251Z,20.16
2022-08-29T10:23:31.805Z,20.65
2022-08-29T10:28:43.059Z,20.47
2022-08-29T10:34:16.591Z,20.49
2022-08-29T10:39:46.018Z,20.40
2022-08-29T10:45:02.695Z,20.77
2022-08-29T10:50:10.102Z,21.15
2022-08-29T10:55:27.403Z,21.07
2022-08-29T11:00:40.234Z,21.36
2022-08-29T11:05:52.579Z,21.02
2022-08-29T11:10:54.263Z,20.99
2022-08-29T11:16:52.634Z,20.64
2022-08-29T11:22:17.275Z,20.87
2022-08-29T11:34:36.780Z,20.35
2022-08-29T11:40:15.491Z,20.94
2022-08-29T11:45:25.626Z,20.85
2022-08-29T11:50:38.911Z,21.24
2022-08-29T11:55:43.078Z,21.31
2022-08-29T12:00:51.465Z,22.42
2022-08-29T12:06:00.850Z,22.12
2022-08-29T12:11:02.464Z,22.23
2022-08-29T12:16:09.313Z,21.93
2022-08-29T12:21:44.237Z,22.49
2022-08-29T12:26:46.922Z,23.06
2022-08-29T12:32:22.284Z,23.74
2022-08-29T12:38:12.878Z,24.05
2022-08-29T12:49:55.846Z,21.97
2022-08-29T12:55:00.575Z,22.04
2022-08-29T13:00:12.007Z,22.93
2022-08-29T13:05:28.899Z,23.25
2022-08-29T13:10:30.833Z,23.05
2022-08-29T13:15:33.442Z,22.58
2022-08-29T13:20:38.265Z,22.31
2022-08-29T13:25:46.784Z,23.68
2022-08-29T13:31:10.226Z,23.99
2022-08-29T13:36:27.172Z,22.66
2022-08-29T13:41:29.010Z,21.98
2022-08-29T13:46:31.058Z,21.86
2022-08-29T13:51:33.769Z,23.00
2022-08-29T14:07:02.072Z,21.55
2022-08-29T14:12:06.701Z,21.47
2022-08-29T14:17:08.299Z,21.51
2022-08-29T14:22:11.800Z,22.27
2022-08-29T14:27:13.471Z,23.08
2022-08-29T14:32:15.104Z,23.16
2022-08-29T14:37:16.651Z,23.24
2022-08-29T14:42:18.905Z,23.32
2022-08-29T14:47:20.539Z,23.23
2022-08-29T14:52:22.154Z,23.55
2022-08-29T14:57:23.696Z,23.49
2022-08-29T15:02:25.332Z,23.27
2022-08-29T15:07:27.255Z,23.22
2022-08-29T15:12:29.054Z,22.24
2022-08-29T15:17:30.956Z,22.06
2022-08-29T15:22:32.717Z,21.98
2022-08-29T15:27:34.283Z,22.06
2022-08-29T15:32:38.936Z,22.74
2022-08-29T15:37:40.675Z,23.06
2022-08-29T15:42:42.269Z,23.18
2022-08-29T15:47:46.227Z,23.13
2022-08-29T15:52:48.135Z,22.79
2022-08-29T15:57:51.955Z,22.72
2022-08-29T16:02:55.021Z,22.52
2022-08-29T16:07:56.717Z,22.32
2022-08-29T16:12:58.806Z,22.58
2022-08-29T16:18:32.341Z,22.67
2022-08-29T16:24:03.351Z,22.55
2022-08-29T16:29:26.560Z,22.66
2022-08-29T16:34:28.916Z,22.72
2022-08-29T16:39:30.467Z,22.90
2022-08-29T16:44:33.174Z,22.76
2022-08-29T16:50:13.394Z,22.51
2022-08-29T16:55:15.140Z,22.18
2022-08-29T17:00:16.735Z,21.94
2022-08-29T17:05:19.609Z,21.55
2022-08-29T17:10:21.158Z,21.81
2022-08-29T17:15:22.825Z,21.71
2022-08-29T17:20:24.896Z,21.83
2022-08-29T17:25:26.563Z,21.79
2022-08-29T17:30:30.564Z,21.77
2022-08-29T17:35:32.321Z,21.79
2022-08-29T17:40:34.032Z,21.47
2022-08-29T17:45:38.688Z,21.10
2022-08-29T17:50:40.387Z,21.01
2022-08-29T17:55:42.079Z,20.59
2022-08-29T18:00:43.932Z,20.18
2022-08-29T18:05:45.939Z,20.12
2022-08-29T18:10:47.528Z,19.64
2022-08-29T18:15:52.711Z,19.28
2022-08-29T18:20:54.500Z,19.47
2022-08-29T18:25:56.110Z,19.32
2022-08-29T18:31:01.206Z,18.96
2022-08-29T18:36:06.876Z,18.85
2022-08-29T18:41:08.569Z,18.73
2022-08-29T18:46:10.337Z,18.55
2022-08-29T18:51:15.463Z,18.54
2022-08-29T18:56:17.031Z,18.73
2022-08-29T19:01:28.399Z,18.57
2022-08-29T19:06:30.541Z,18.68
2022-08-29T19:11:32.076Z,18.58
2022-08-29T19:16:34.332Z,18.68
2022-08-29T19:21:35.893Z,18.55
2022-08-29T19:26:39.942Z,18.32
2022-08-29T19:31:41.663Z,17.92
2022-08-29T19:36:46.923Z,17.82
2022-08-29T19:41:50.084Z,17.82
2022-08-29T19:46:52.305Z,17.52
2022-08-29T19:51:54.181Z,17.63
2022-08-29T19:56:56.320Z,17.57
2022-08-29T20:01:58.379Z,17.50
2022-08-29T20:07:00.553Z,17.40
2022-08-29T20:12:03.800Z,17.06
2022-08-29T20:17:09.212Z,17.24
2022-08-29T20:22:11.825Z,17.29
2022-08-29T20:27:14.163Z,17.22
2022-08-29T20:32:15.867Z,17.05
2022-08-29T20:37:19.306Z,17.08
2022-08-29T20:42:24.013Z,16.86
2022-08-29T20:47:40.847Z,16.84
2022-08-29T20:52:42.382Z,16.88
2022-08-29T20:57:43.920Z,16.90
2022-08-29T21:03:05.757Z,16.75
2022-08-29T21:09:10.751Z,16.67
2022-08-29T21:14:15.182Z,16.71
2022-08-29T21:19:17.231Z,16.72
2022-08-29T21:24:20.134Z,16.71
2022-08-29T21:29:22.841Z,16.62
2022-08-29T21:34:43.650Z,16.59
2022-08-29T21:39:47.690Z,16.53
2022-08-29T21:44:49.249Z,16.53
2022-08-29T21:49:51.721Z,16.58
2022-08-29T21:54:54.192Z,16.33
2022-08-29T21:59:55.827Z,16.23
2022-08-29T22:04:57.360Z,16.10
2022-08-29T22:09:59.653Z,16.00
2022-08-29T22:15:19.889Z,16.01
2022-08-29T22:20:21.476Z,15.88
2022-08-29T22:25:23.537Z,15.70
2022-08-29T22:30:31.805Z,15.57
2022-08-29T22:35:34.490Z,15.41
2022-08-29T22:40:36.121Z,15.49
2022-08-29T22:45:39.499Z,15.23
2022-08-29T22:50:45.898Z,15.12
2022-08-29T22:55:59.512Z,14.88
2022-08-29T23:01:01.050Z,14.85
2022-08-29T23:06:02.613Z,14.77
2022-08-29T23:11:04.221Z,14.71
2022-08-29T23:16:05.914Z,14.67
2022-08-29T23:21:07.943Z,14.51
2022-08-29T23:26:10.193Z,14.41
2022-08-29T23:31:12.664Z,14.50
2022-08-29T23:36:14.495Z,14.44
2022-08-29T23:41:16.226Z,14.39
2022-08-29T23:46:22.359Z,14.34
2022-08-29T23:51:24.088Z,14.34
2022-08-29T23:56:25.891Z,14.36
